sensor_id;sensor_type;location;lat;lon;timestamp;P1;durP1;ratioP1;P2;durP2;ratioP2
41687;SDS011;27371;42.686;23.362;2023-12-22T00:00:02;65.72;;;35.65;;
41687;SDS011;27371;42.686;23.362;2023-12-22T00:02:29;55.05;;;31.15;;
41687;SDS011;27371;42.686;23.362;2023-12-22T00:04:55;53.85;;;28.40;;
41687;SDS011;27371;42.686;23.362;2023-12-22T00:07:20;49.90;;;26.83;;
41687;SDS011;27371;42.686;23.362;2023-12-22T00:09:45;51.22;;;27.10;;
41687;SDS011;27371;42.686;23.362;2023-12-22T00:12:10;46.17;;;25.17;;
41687;SDS011;27371;42.686;23.362;2023-12-22T00:14:37;39.92;;;22.83;;
41687;SDS011;27371;42.686;23.362;2023-12-22T00:17:05;40.78;;;21.58;;
41687;SDS011;27371;42.686;23.362;2023-12-22T00:19:30;40.42;;;20.13;;
41687;SDS011;27371;42.686;23.362;2023-12-22T00:21:56;37.92;;;21.58;;
41687;SDS011;27371;42.686;23.362;2023-12-22T00:24:23;33.67;;;20.48;;
41687;SDS011;27371;42.686;23.362;2023-12-22T00:26:48;37.08;;;20.45;;
41687;SDS011;27371;42.686;23.362;2023-12-22T00:29:14;34.85;;;19.02;;
41687;SDS011;27371;42.686;23.362;2023-12-22T00:31:39;33.55;;;18.95;;
41687;SDS011;27371;42.686;23.362;2023-12-22T00:34:04;33.00;;;18.67;;
41687;SDS011;27371;42.686;23.362;2023-12-22T00:36:30;35.08;;;18.50;;
41687;SDS011;27371;42.686;23.362;2023-12-22T00:38:55;31.08;;;18.77;;
41687;SDS011;27371;42.686;23.362;2023-12-22T00:41:20;30.38;;;17.48;;
41687;SDS011;27371;42.686;23.362;2023-12-22T00:43:46;25.27;;;15.82;;
41687;SDS011;27371;42.686;23.362;2023-12-22T00:46:12;26.05;;;16.23;;
41687;SDS011;27371;42.686;23.362;2023-12-22T00:48:37;29.05;;;15.55;;
41687;SDS011;27371;42.686;23.362;2023-12-22T00:51:03;25.92;;;16.00;;
41687;SDS011;27371;42.686;23.362;2023-12-22T00:53:28;25.83;;;14.88;;
41687;SDS011;27371;42.686;23.362;2023-12-22T00:55:54;25.20;;;15.48;;
41687;SDS011;27371;42.686;23.362;2023-12-22T00:58:19;27.80;;;15.90;;
41687;SDS011;27371;42.686;23.362;2023-12-22T01:03:19;26.48;;;15.15;;
41687;SDS011;27371;42.686;23.362;2023-12-22T01:05:45;28.48;;;15.05;;
41687;SDS011;27371;42.686;23.362;2023-12-22T01:08:10;24.13;;;14.50;;
41687;SDS011;27371;42.686;23.362;2023-12-22T01:10:35;25.90;;;14.75;;
41687;SDS011;27371;42.686;23.362;2023-12-22T01:13:01;24.77;;;14.80;;
41687;SDS011;27371;42.686;23.362;2023-12-22T01:15:26;23.08;;;14.40;;
41687;SDS011;27371;42.686;23.362;2023-12-22T01:17:52;24.00;;;14.68;;
41687;SDS011;27371;42.686;23.362;2023-12-22T01:20:18;27.70;;;15.70;;
41687;SDS011;27371;42.686;23.362;2023-12-22T01:22:43;26.60;;;14.98;;
41687;SDS011;27371;42.686;23.362;2023-12-22T01:25:09;23.90;;;14.02;;
41687;SDS011;27371;42.686;23.362;2023-12-22T01:27:34;26.65;;;14.77;;
41687;SDS011;27371;42.686;23.362;2023-12-22T01:30:00;25.77;;;15.52;;
41687;SDS011;27371;42.686;23.362;2023-12-22T01:32:25;28.10;;;15.45;;
41687;SDS011;27371;42.686;23.362;2023-12-22T01:34:50;26.08;;;15.43;;
41687;SDS011;27371;42.686;23.362;2023-12-22T01:37:16;28.55;;;15.35;;
41687;SDS011;27371;42.686;23.362;2023-12-22T01:39:41;26.15;;;13.85;;
41687;SDS011;27371;42.686;23.362;2023-12-22T01:42:06;26.90;;;15.52;;
41687;SDS011;27371;42.686;23.362;2023-12-22T01:44:32;27.58;;;15.32;;
41687;SDS011;27371;42.686;23.362;2023-12-22T01:46:57;26.60;;;15.15;;
41687;SDS011;27371;42.686;23.362;2023-12-22T01:49:22;23.45;;;13.05;;
41687;SDS011;27371;42.686;23.362;2023-12-22T01:51:48;22.75;;;13.18;;
41687;SDS011;27371;42.686;23.362;2023-12-22T01:54:14;25.10;;;14.13;;
41687;SDS011;27371;42.686;23.362;2023-12-22T01:56:41;22.30;;;13.38;;
41687;SDS011;27371;42.686;23.362;2023-12-22T01:59:06;23.17;;;12.82;;
41687;SDS011;27371;42.686;23.362;2023-12-22T02:01:31;23.27;;;13.55;;
41687;SDS011;27371;42.686;23.362;2023-12-22T02:03:57;24.27;;;13.82;;
41687;SDS011;27371;42.686;23.362;2023-12-22T02:06:23;24.85;;;13.15;;
41687;SDS011;27371;42.686;23.362;2023-12-22T02:08:49;20.30;;;13.45;;
41687;SDS011;27371;42.686;23.362;2023-12-22T02:11:15;26.20;;;14.30;;
41687;SDS011;27371;42.686;23.362;2023-12-22T02:13:41;31.40;;;18.60;;
41687;SDS011;27371;42.686;23.362;2023-12-22T02:16:20;39.47;;;22.25;;
41687;SDS011;27371;42.686;23.362;2023-12-22T02:18:47;51.97;;;29.27;;
41687;SDS011;27371;42.686;23.362;2023-12-22T02:21:13;37.75;;;22.25;;
41687;SDS011;27371;42.686;23.362;2023-12-22T02:23:39;39.78;;;23.90;;
41687;SDS011;27371;42.686;23.362;2023-12-22T02:26:39;39.15;;;23.58;;
41687;SDS011;27371;42.686;23.362;2023-12-22T02:28:57;40.97;;;21.30;;
41687;SDS011;27371;42.686;23.362;2023-12-22T02:31:39;36.17;;;21.25;;
41687;SDS011;27371;42.686;23.362;2023-12-22T02:34:11;37.85;;;20.58;;
41687;SDS011;27371;42.686;23.362;2023-12-22T02:36:37;30.73;;;18.05;;
41687;SDS011;27371;42.686;23.362;2023-12-22T02:39:03;32.92;;;17.52;;
41687;SDS011;27371;42.686;23.362;2023-12-22T02:41:29;31.15;;;17.38;;
41687;SDS011;27371;42.686;23.362;2023-12-22T02:43:55;37.65;;;19.35;;
41687;SDS011;27371;42.686;23.362;2023-12-22T02:46:20;29.80;;;17.42;;
41687;SDS011;27371;42.686;23.362;2023-12-22T02:48:45;35.47;;;17.33;;
41687;SDS011;27371;42.686;23.362;2023-12-22T02:51:11;32.35;;;17.08;;
41687;SDS011;27371;42.686;23.362;2023-12-22T02:53:36;31.60;;;16.98;;
41687;SDS011;27371;42.686;23.362;2023-12-22T02:56:02;31.00;;;17.25;;
41687;SDS011;27371;42.686;23.362;2023-12-22T02:58:28;30.55;;;16.98;;
41687;SDS011;27371;42.686;23.362;2023-12-22T03:00:53;31.33;;;16.08;;
41687;SDS011;27371;42.686;23.362;2023-12-22T03:03:18;27.25;;;16.30;;
41687;SDS011;27371;42.686;23.362;2023-12-22T03:05:44;29.42;;;16.08;;
41687;SDS011;27371;42.686;23.362;2023-12-22T03:08:09;36.03;;;16.75;;
41687;SDS011;27371;42.686;23.362;2023-12-22T03:10:35;26.73;;;15.40;;
41687;SDS011;27371;42.686;23.362;2023-12-22T03:13:00;29.73;;;15.45;;
41687;SDS011;27371;42.686;23.362;2023-12-22T03:15:25;27.63;;;15.80;;
41687;SDS011;27371;42.686;23.362;2023-12-22T03:17:51;28.15;;;15.13;;
41687;SDS011;27371;42.686;23.362;2023-12-22T03:20:17;43.38;;;16.67;;
41687;SDS011;27371;42.686;23.362;2023-12-22T03:22:43;24.95;;;14.48;;
41687;SDS011;27371;42.686;23.362;2023-12-22T03:25:08;27.40;;;15.50;;
41687;SDS011;27371;42.686;23.362;2023-12-22T03:27:34;28.27;;;16.45;;
41687;SDS011;27371;42.686;23.362;2023-12-22T03:29:59;25.15;;;14.82;;
41687;SDS011;27371;42.686;23.362;2023-12-22T03:32:25;29.00;;;16.33;;
41687;SDS011;27371;42.686;23.362;2023-12-22T03:34:51;26.70;;;16.23;;
41687;SDS011;27371;42.686;23.362;2023-12-22T03:37:17;30.77;;;16.65;;
41687;SDS011;27371;42.686;23.362;2023-12-22T03:39:42;26.45;;;16.13;;
41687;SDS011;27371;42.686;23.362;2023-12-22T03:42:07;24.80;;;15.85;;
41687;SDS011;27371;42.686;23.362;2023-12-22T03:44:33;28.83;;;16.17;;
41687;SDS011;27371;42.686;23.362;2023-12-22T03:46:58;26.75;;;15.48;;
41687;SDS011;27371;42.686;23.362;2023-12-22T03:49:23;25.08;;;15.20;;
41687;SDS011;27371;42.686;23.362;2023-12-22T03:51:49;29.08;;;15.75;;
41687;SDS011;27371;42.686;23.362;2023-12-22T03:54:14;21.45;;;14.57;;
41687;SDS011;27371;42.686;23.362;2023-12-22T03:56:42;24.70;;;16.02;;
41687;SDS011;27371;42.686;23.362;2023-12-22T03:59:07;26.02;;;14.70;;
41687;SDS011;27371;42.686;23.362;2023-12-22T04:01:33;22.83;;;15.20;;
41687;SDS011;27371;42.686;23.362;2023-12-22T04:03:59;24.17;;;14.30;;
41687;SDS011;27371;42.686;23.362;2023-12-22T04:06:24;24.55;;;15.13;;
41687;SDS011;27371;42.686;23.362;2023-12-22T04:08:49;23.25;;;14.88;;
41687;SDS011;27371;42.686;23.362;2023-12-22T04:11:15;25.75;;;15.35;;
41687;SDS011;27371;42.686;23.362;2023-12-22T04:13:40;25.35;;;14.85;;
41687;SDS011;27371;42.686;23.362;2023-12-22T04:16:05;30.52;;;15.30;;
41687;SDS011;27371;42.686;23.362;2023-12-22T04:18:31;24.27;;;14.45;;
41687;SDS011;27371;42.686;23.362;2023-12-22T04:20:57;25.02;;;14.55;;
41687;SDS011;27371;42.686;23.362;2023-12-22T04:23:22;25.50;;;15.07;;
41687;SDS011;27371;42.686;23.362;2023-12-22T04:25:48;22.30;;;14.30;;
41687;SDS011;27371;42.686;23.362;2023-12-22T04:28:13;27.65;;;15.27;;
41687;SDS011;27371;42.686;23.362;2023-12-22T04:30:39;24.73;;;14.98;;
41687;SDS011;27371;42.686;23.362;2023-12-22T04:33:04;21.00;;;14.70;;
41687;SDS011;27371;42.686;23.362;2023-12-22T04:35:29;24.77;;;15.30;;
41687;SDS011;27371;42.686;23.362;2023-12-22T04:37:55;25.98;;;14.48;;
41687;SDS011;27371;42.686;23.362;2023-12-22T04:40:20;26.02;;;15.82;;
41687;SDS011;27371;42.686;23.362;2023-12-22T04:42:46;25.90;;;15.52;;
41687;SDS011;27371;42.686;23.362;2023-12-22T04:45:11;24.40;;;14.68;;
41687;SDS011;27371;42.686;23.362;2023-12-22T04:47:37;22.25;;;14.40;;
41687;SDS011;27371;42.686;23.362;2023-12-22T04:50:02;26.05;;;14.10;;
41687;SDS011;27371;42.686;23.362;2023-12-22T04:52:27;21.27;;;13.32;;
41687;SDS011;27371;42.686;23.362;2023-12-22T04:54:54;23.02;;;14.32;;
41687;SDS011;27371;42.686;23.362;2023-12-22T04:57:19;23.33;;;14.98;;
41687;SDS011;27371;42.686;23.362;2023-12-22T04:59:44;23.15;;;14.30;;
41687;SDS011;27371;42.686;23.362;2023-12-22T05:02:10;23.48;;;14.32;;
41687;SDS011;27371;42.686;23.362;2023-12-22T05:04:35;21.23;;;13.45;;
41687;SDS011;27371;42.686;23.362;2023-12-22T05:07:00;21.20;;;13.18;;
41687;SDS011;27371;42.686;23.362;2023-12-22T05:09:26;19.75;;;12.30;;
41687;SDS011;27371;42.686;23.362;2023-12-22T05:11:53;22.65;;;13.13;;
41687;SDS011;27371;42.686;23.362;2023-12-22T05:14:18;19.75;;;13.25;;
41687;SDS011;27371;42.686;23.362;2023-12-22T05:16:44;22.65;;;14.07;;
41687;SDS011;27371;42.686;23.362;2023-12-22T05:19:09;20.95;;;13.05;;
41687;SDS011;27371;42.686;23.362;2023-12-22T05:21:35;26.58;;;15.05;;
41687;SDS011;27371;42.686;23.362;2023-12-22T05:24:00;23.50;;;14.85;;
41687;SDS011;27371;42.686;23.362;2023-12-22T05:26:25;23.33;;;14.38;;
41687;SDS011;27371;42.686;23.362;2023-12-22T05:28:55;25.80;;;14.15;;
41687;SDS011;27371;42.686;23.362;2023-12-22T05:31:20;24.48;;;15.50;;
41687;SDS011;27371;42.686;23.362;2023-12-22T05:33:46;36.25;;;16.35;;
41687;SDS011;27371;42.686;23.362;2023-12-22T05:36:11;26.17;;;15.43;;
41687;SDS011;27371;42.686;23.362;2023-12-22T05:38:37;27.20;;;15.88;;
41687;SDS011;27371;42.686;23.362;2023-12-22T05:41:02;26.98;;;15.88;;
41687;SDS011;27371;42.686;23.362;2023-12-22T05:43:27;24.65;;;14.45;;
41687;SDS011;27371;42.686;23.362;2023-12-22T05:45:53;21.05;;;13.48;;
41687;SDS011;27371;42.686;23.362;2023-12-22T05:48:18;19.27;;;13.57;;
41687;SDS011;27371;42.686;23.362;2023-12-22T05:50:46;24.40;;;14.55;;
41687;SDS011;27371;42.686;23.362;2023-12-22T05:53:12;21.92;;;13.70;;
41687;SDS011;27371;42.686;23.362;2023-12-22T05:55:37;24.27;;;13.90;;
41687;SDS011;27371;42.686;23.362;2023-12-22T05:58:03;26.67;;;14.25;;
41687;SDS011;27371;42.686;23.362;2023-12-22T06:00:28;19.45;;;13.55;;
41687;SDS011;27371;42.686;23.362;2023-12-22T06:02:53;20.73;;;13.02;;
41687;SDS011;27371;42.686;23.362;2023-12-22T06:05:19;21.23;;;13.18;;
41687;SDS011;27371;42.686;23.362;2023-12-22T06:07:47;26.25;;;13.20;;
41687;SDS011;27371;42.686;23.362;2023-12-22T06:10:13;24.80;;;13.77;;
41687;SDS011;27371;42.686;23.362;2023-12-22T06:12:41;21.38;;;13.13;;
41687;SDS011;27371;42.686;23.362;2023-12-22T06:15:06;22.30;;;13.35;;
41687;SDS011;27371;42.686;23.362;2023-12-22T06:17:32;23.50;;;14.18;;
41687;SDS011;27371;42.686;23.362;2023-12-22T06:19:57;22.60;;;14.65;;
41687;SDS011;27371;42.686;23.362;2023-12-22T06:22:22;21.48;;;14.25;;
41687;SDS011;27371;42.686;23.362;2023-12-22T06:24:48;22.17;;;14.23;;
41687;SDS011;27371;42.686;23.362;2023-12-22T06:27:13;22.17;;;13.73;;
41687;SDS011;27371;42.686;23.362;2023-12-22T06:29:39;23.35;;;14.70;;
41687;SDS011;27371;42.686;23.362;2023-12-22T06:32:04;23.08;;;13.73;;
41687;SDS011;27371;42.686;23.362;2023-12-22T06:34:31;21.20;;;13.75;;
41687;SDS011;27371;42.686;23.362;2023-12-22T06:36:57;24.25;;;13.98;;
41687;SDS011;27371;42.686;23.362;2023-12-22T06:39:25;25.88;;;14.35;;
41687;SDS011;27371;42.686;23.362;2023-12-22T06:41:50;20.63;;;13.70;;
41687;SDS011;27371;42.686;23.362;2023-12-22T06:44:16;18.95;;;13.02;;
41687;SDS011;27371;42.686;23.362;2023-12-22T06:46:41;20.60;;;13.43;;
41687;SDS011;27371;42.686;23.362;2023-12-22T06:49:07;26.80;;;15.13;;
41687;SDS011;27371;42.686;23.362;2023-12-22T06:51:32;21.55;;;13.45;;
41687;SDS011;27371;42.686;23.362;2023-12-22T06:54:03;21.08;;;13.27;;
41687;SDS011;27371;42.686;23.362;2023-12-22T06:56:33;20.38;;;12.95;;
41687;SDS011;27371;42.686;23.362;2023-12-22T06:58:58;22.83;;;13.88;;
41687;SDS011;27371;42.686;23.362;2023-12-22T07:01:28;20.05;;;12.93;;
41687;SDS011;27371;42.686;23.362;2023-12-22T07:03:53;21.40;;;13.38;;
41687;SDS011;27371;42.686;23.362;2023-12-22T07:06:19;19.23;;;13.18;;
41687;SDS011;27371;42.686;23.362;2023-12-22T07:11:21;19.42;;;11.23;;
41687;SDS011;27371;42.686;23.362;2023-12-22T07:13:46;15.73;;;11.13;;
41687;SDS011;27371;42.686;23.362;2023-12-22T07:16:12;17.63;;;11.25;;
41687;SDS011;27371;42.686;23.362;2023-12-22T07:18:38;17.88;;;11.85;;
41687;SDS011;27371;42.686;23.362;2023-12-22T07:21:03;19.38;;;11.13;;
41687;SDS011;27371;42.686;23.362;2023-12-22T07:23:28;18.02;;;11.50;;
41687;SDS011;27371;42.686;23.362;2023-12-22T07:25:54;18.15;;;11.88;;
41687;SDS011;27371;42.686;23.362;2023-12-22T07:28:19;19.77;;;11.43;;
41687;SDS011;27371;42.686;23.362;2023-12-22T07:30:44;15.60;;;11.27;;
41687;SDS011;27371;42.686;23.362;2023-12-22T07:33:10;22.83;;;13.15;;
41687;SDS011;27371;42.686;23.362;2023-12-22T07:35:36;21.20;;;13.20;;
41687;SDS011;27371;42.686;23.362;2023-12-22T07:38:01;19.77;;;11.82;;
41687;SDS011;27371;42.686;23.362;2023-12-22T07:40:29;20.15;;;12.07;;
41687;SDS011;27371;42.686;23.362;2023-12-22T07:42:58;18.63;;;12.48;;
41687;SDS011;27371;42.686;23.362;2023-12-22T07:45:23;21.33;;;12.57;;
41687;SDS011;27371;42.686;23.362;2023-12-22T07:47:48;20.08;;;13.50;;
41687;SDS011;27371;42.686;23.362;2023-12-22T07:50:14;23.88;;;12.75;;
41687;SDS011;27371;42.686;23.362;2023-12-22T07:52:40;20.75;;;12.50;;
41687;SDS011;27371;42.686;23.362;2023-12-22T07:55:06;18.67;;;12.68;;
41687;SDS011;27371;42.686;23.362;2023-12-22T07:57:31;24.55;;;13.13;;
41687;SDS011;27371;42.686;23.362;2023-12-22T07:59:57;21.02;;;12.88;;
41687;SDS011;27371;42.686;23.362;2023-12-22T08:02:22;21.05;;;12.75;;
41687;SDS011;27371;42.686;23.362;2023-12-22T08:04:48;18.25;;;11.77;;
41687;SDS011;27371;42.686;23.362;2023-12-22T08:07:14;19.58;;;12.52;;
41687;SDS011;27371;42.686;23.362;2023-12-22T08:09:39;22.30;;;13.05;;
41687;SDS011;27371;42.686;23.362;2023-12-22T08:12:05;26.05;;;12.23;;
41687;SDS011;27371;42.686;23.362;2023-12-22T08:14:30;21.83;;;13.07;;
41687;SDS011;27371;42.686;23.362;2023-12-22T08:16:55;24.20;;;13.52;;
41687;SDS011;27371;42.686;23.362;2023-12-22T08:19:21;19.10;;;12.23;;
41687;SDS011;27371;42.686;23.362;2023-12-22T08:21:46;20.33;;;12.18;;
41687;SDS011;27371;42.686;23.362;2023-12-22T08:24:12;20.98;;;12.73;;
41687;SDS011;27371;42.686;23.362;2023-12-22T08:26:37;25.85;;;13.65;;
41687;SDS011;27371;42.686;23.362;2023-12-22T08:29:02;23.13;;;13.88;;
41687;SDS011;27371;42.686;23.362;2023-12-22T08:31:28;23.35;;;13.82;;
41687;SDS011;27371;42.686;23.362;2023-12-22T08:33:53;22.25;;;14.07;;
41687;SDS011;27371;42.686;23.362;2023-12-22T08:36:18;20.27;;;13.57;;
41687;SDS011;27371;42.686;23.362;2023-12-22T08:38:44;22.45;;;14.25;;
41687;SDS011;27371;42.686;23.362;2023-12-22T08:41:09;20.45;;;14.27;;
41687;SDS011;27371;42.686;23.362;2023-12-22T08:43:36;25.48;;;15.35;;
41687;SDS011;27371;42.686;23.362;2023-12-22T08:46:03;24.75;;;15.20;;
41687;SDS011;27371;42.686;23.362;2023-12-22T08:48:29;22.08;;;16.15;;
41687;SDS011;27371;42.686;23.362;2023-12-22T08:50:54;21.40;;;14.68;;
41687;SDS011;27371;42.686;23.362;2023-12-22T08:53:20;24.60;;;15.88;;
41687;SDS011;27371;42.686;23.362;2023-12-22T08:55:45;26.25;;;16.25;;
41687;SDS011;27371;42.686;23.362;2023-12-22T08:58:10;32.42;;;18.17;;
41687;SDS011;27371;42.686;23.362;2023-12-22T09:00:36;30.83;;;18.85;;
41687;SDS011;27371;42.686;23.362;2023-12-22T09:03:01;31.58;;;19.17;;
41687;SDS011;27371;42.686;23.362;2023-12-22T09:05:27;31.98;;;19.27;;
41687;SDS011;27371;42.686;23.362;2023-12-22T09:07:52;35.85;;;20.17;;
41687;SDS011;27371;42.686;23.362;2023-12-22T09:10:18;34.67;;;20.52;;
41687;SDS011;27371;42.686;23.362;2023-12-22T09:12:44;38.58;;;21.95;;
41687;SDS011;27371;42.686;23.362;2023-12-22T09:15:09;37.03;;;22.85;;
41687;SDS011;27371;42.686;23.362;2023-12-22T09:17:35;33.78;;;21.15;;
41687;SDS011;27371;42.686;23.362;2023-12-22T09:20:00;33.65;;;21.52;;
41687;SDS011;27371;42.686;23.362;2023-12-22T09:22:25;30.42;;;19.13;;
41687;SDS011;27371;42.686;23.362;2023-12-22T09:24:51;30.90;;;17.95;;
41687;SDS011;27371;42.686;23.362;2023-12-22T09:27:16;28.92;;;18.42;;
41687;SDS011;27371;42.686;23.362;2023-12-22T09:29:41;36.55;;;19.88;;
41687;SDS011;27371;42.686;23.362;2023-12-22T09:32:07;32.30;;;19.45;;
41687;SDS011;27371;42.686;23.362;2023-12-22T09:34:33;31.73;;;17.65;;
41687;SDS011;27371;42.686;23.362;2023-12-22T09:36:58;29.27;;;18.50;;
41687;SDS011;27371;42.686;23.362;2023-12-22T09:39:23;30.35;;;17.90;;
41687;SDS011;27371;42.686;23.362;2023-12-22T09:41:49;26.98;;;16.40;;
41687;SDS011;27371;42.686;23.362;2023-12-22T09:44:16;29.92;;;16.10;;
41687;SDS011;27371;42.686;23.362;2023-12-22T09:46:44;28.80;;;20.35;;
41687;SDS011;27371;42.686;23.362;2023-12-22T09:49:10;28.35;;;18.75;;
41687;SDS011;27371;42.686;23.362;2023-12-22T09:51:36;25.02;;;17.33;;
41687;SDS011;27371;42.686;23.362;2023-12-22T09:54:02;30.95;;;18.40;;
41687;SDS011;27371;42.686;23.362;2023-12-22T09:56:29;24.13;;;16.20;;
41687;SDS011;27371;42.686;23.362;2023-12-22T09:58:54;26.77;;;16.83;;
41687;SDS011;27371;42.686;23.362;2023-12-22T10:01:21;37.42;;;17.65;;
41687;SDS011;27371;42.686;23.362;2023-12-22T10:03:48;37.83;;;18.70;;
41687;SDS011;27371;42.686;23.362;2023-12-22T10:06:13;28.88;;;16.55;;
41687;SDS011;27371;42.686;23.362;2023-12-22T10:08:39;25.13;;;16.08;;
41687;SDS011;27371;42.686;23.362;2023-12-22T10:11:04;28.75;;;16.65;;
41687;SDS011;27371;42.686;23.362;2023-12-22T10:13:31;29.00;;;15.70;;
41687;SDS011;27371;42.686;23.362;2023-12-22T10:15:58;31.33;;;16.25;;
41687;SDS011;27371;42.686;23.362;2023-12-22T10:18:24;26.50;;;16.75;;
41687;SDS011;27371;42.686;23.362;2023-12-22T10:20:49;26.65;;;15.77;;
41687;SDS011;27371;42.686;23.362;2023-12-22T10:23:15;27.88;;;16.15;;
41687;SDS011;27371;42.686;23.362;2023-12-22T10:25:40;28.27;;;15.98;;
41687;SDS011;27371;42.686;23.362;2023-12-22T10:28:09;27.95;;;16.60;;
41687;SDS011;27371;42.686;23.362;2023-12-22T10:30:35;26.90;;;17.75;;
41687;SDS011;27371;42.686;23.362;2023-12-22T10:33:03;31.00;;;20.88;;
41687;SDS011;27371;42.686;23.362;2023-12-22T10:35:28;38.47;;;22.02;;
41687;SDS011;27371;42.686;23.362;2023-12-22T10:37:54;32.78;;;21.63;;
41687;SDS011;27371;42.686;23.362;2023-12-22T10:40:21;37.25;;;22.48;;
41687;SDS011;27371;42.686;23.362;2023-12-22T10:42:48;36.15;;;22.98;;
41687;SDS011;27371;42.686;23.362;2023-12-22T10:45:13;38.25;;;23.33;;
41687;SDS011;27371;42.686;23.362;2023-12-22T10:47:40;31.70;;;20.73;;
41687;SDS011;27371;42.686;23.362;2023-12-22T10:50:05;32.75;;;20.63;;
41687;SDS011;27371;42.686;23.362;2023-12-22T10:52:31;31.35;;;20.02;;
41687;SDS011;27371;42.686;23.362;2023-12-22T10:54:57;29.08;;;18.67;;
41687;SDS011;27371;42.686;23.362;2023-12-22T10:57:22;29.50;;;18.92;;
41687;SDS011;27371;42.686;23.362;2023-12-22T10:59:48;23.15;;;14.43;;
41687;SDS011;27371;42.686;23.362;2023-12-22T11:02:16;25.40;;;13.27;;
41687;SDS011;27371;42.686;23.362;2023-12-22T11:04:52;15.48;;;9.27;;
41687;SDS011;27371;42.686;23.362;2023-12-22T11:07:22;13.73;;;7.45;;
41687;SDS011;27371;42.686;23.362;2023-12-22T11:09:48;11.38;;;6.53;;
41687;SDS011;27371;42.686;23.362;2023-12-22T11:12:15;9.75;;;6.03;;
41687;SDS011;27371;42.686;23.362;2023-12-22T11:14:41;10.43;;;6.32;;
41687;SDS011;27371;42.686;23.362;2023-12-22T11:17:07;12.43;;;6.10;;
41687;SDS011;27371;42.686;23.362;2023-12-22T11:19:34;11.27;;;6.65;;
41687;SDS011;27371;42.686;23.362;2023-12-22T11:22:00;11.45;;;5.85;;
41687;SDS011;27371;42.686;23.362;2023-12-22T11:24:26;7.60;;;4.88;;
41687;SDS011;27371;42.686;23.362;2023-12-22T11:26:53;9.63;;;5.32;;
41687;SDS011;27371;42.686;23.362;2023-12-22T11:29:19;9.95;;;5.55;;
41687;SDS011;27371;42.686;23.362;2023-12-22T11:31:45;8.75;;;4.80;;
41687;SDS011;27371;42.686;23.362;2023-12-22T11:34:13;14.18;;;5.40;;
41687;SDS011;27371;42.686;23.362;2023-12-22T11:36:39;8.15;;;4.85;;
41687;SDS011;27371;42.686;23.362;2023-12-22T11:39:05;7.78;;;4.10;;
41687;SDS011;27371;42.686;23.362;2023-12-22T11:41:31;6.93;;;4.72;;
41687;SDS011;27371;42.686;23.362;2023-12-22T11:43:58;9.85;;;4.53;;
41687;SDS011;27371;42.686;23.362;2023-12-22T11:46:24;6.78;;;4.55;;
41687;SDS011;27371;42.686;23.362;2023-12-22T11:48:50;6.13;;;3.65;;
41687;SDS011;27371;42.686;23.362;2023-12-22T11:51:16;6.40;;;3.40;;
41687;SDS011;27371;42.686;23.362;2023-12-22T11:53:42;8.48;;;3.60;;
41687;SDS011;27371;42.686;23.362;2023-12-22T11:56:08;8.93;;;3.40;;
41687;SDS011;27371;42.686;23.362;2023-12-22T12:01:06;3.42;;;1.83;;
41687;SDS011;27371;42.686;23.362;2023-12-22T12:03:32;2.38;;;1.30;;
41687;SDS011;27371;42.686;23.362;2023-12-22T12:08:35;3.35;;;1.20;;
41687;SDS011;27371;42.686;23.362;2023-12-22T12:11:00;2.20;;;1.27;;
41687;SDS011;27371;42.686;23.362;2023-12-22T12:13:28;3.05;;;1.55;;
41687;SDS011;27371;42.686;23.362;2023-12-22T12:15:56;2.92;;;1.58;;
41687;SDS011;27371;42.686;23.362;2023-12-22T12:18:24;3.58;;;1.65;;
41687;SDS011;27371;42.686;23.362;2023-12-22T12:20:49;3.22;;;1.60;;
41687;SDS011;27371;42.686;23.362;2023-12-22T12:23:16;1.80;;;1.20;;
41687;SDS011;27371;42.686;23.362;2023-12-22T12:25:42;2.63;;;1.40;;
41687;SDS011;27371;42.686;23.362;2023-12-22T12:28:07;2.25;;;0.80;;
41687;SDS011;27371;42.686;23.362;2023-12-22T12:30:36;1.10;;;0.65;;
41687;SDS011;27371;42.686;23.362;2023-12-22T12:33:08;1.35;;;0.70;;
41687;SDS011;27371;42.686;23.362;2023-12-22T12:35:34;0.82;;;0.50;;
41687;SDS011;27371;42.686;23.362;2023-12-22T12:38:00;1.58;;;0.73;;
41687;SDS011;27371;42.686;23.362;2023-12-22T12:40:28;2.47;;;1.00;;
41687;SDS011;27371;42.686;23.362;2023-12-22T12:42:55;1.60;;;0.80;;
41687;SDS011;27371;42.686;23.362;2023-12-22T12:45:24;1.55;;;0.70;;
41687;SDS011;27371;42.686;23.362;2023-12-22T12:47:56;3.50;;;0.68;;
41687;SDS011;27371;42.686;23.362;2023-12-22T12:50:23;2.95;;;1.60;;
41687;SDS011;27371;42.686;23.362;2023-12-22T12:52:51;3.75;;;1.20;;
41687;SDS011;27371;42.686;23.362;2023-12-22T12:55:20;3.58;;;2.00;;
41687;SDS011;27371;42.686;23.362;2023-12-22T12:57:53;4.22;;;1.75;;
41687;SDS011;27371;42.686;23.362;2023-12-22T13:02:50;3.30;;;1.67;;
41687;SDS011;27371;42.686;23.362;2023-12-22T13:05:24;2.25;;;1.40;;
41687;SDS011;27371;42.686;23.362;2023-12-22T13:07:50;2.20;;;1.05;;
41687;SDS011;27371;42.686;23.362;2023-12-22T13:10:22;2.55;;;1.40;;
41687;SDS011;27371;42.686;23.362;2023-12-22T13:12:48;3.00;;;1.60;;
41687;SDS011;27371;42.686;23.362;2023-12-22T13:15:14;2.13;;;1.38;;
41687;SDS011;27371;42.686;23.362;2023-12-22T13:17:39;2.35;;;1.35;;
41687;SDS011;27371;42.686;23.362;2023-12-22T13:20:05;3.08;;;1.50;;
41687;SDS011;27371;42.686;23.362;2023-12-22T13:22:30;4.78;;;1.50;;
41687;SDS011;27371;42.686;23.362;2023-12-22T13:24:56;5.30;;;2.03;;
41687;SDS011;27371;42.686;23.362;2023-12-22T13:27:22;2.88;;;1.83;;
41687;SDS011;27371;42.686;23.362;2023-12-22T13:29:48;3.25;;;1.98;;
41687;SDS011;27371;42.686;23.362;2023-12-22T13:32:17;5.57;;;2.28;;
41687;SDS011;27371;42.686;23.362;2023-12-22T13:34:50;4.22;;;1.90;;
41687;SDS011;27371;42.686;23.362;2023-12-22T13:37:15;3.40;;;1.80;;
41687;SDS011;27371;42.686;23.362;2023-12-22T13:39:41;5.13;;;1.63;;
41687;SDS011;27371;42.686;23.362;2023-12-22T13:42:13;4.20;;;1.63;;
41687;SDS011;27371;42.686;23.362;2023-12-22T13:44:57;2.90;;;1.55;;
41687;SDS011;27371;42.686;23.362;2023-12-22T13:47:22;4.57;;;2.13;;
41687;SDS011;27371;42.686;23.362;2023-12-22T13:49:48;3.95;;;1.80;;
41687;SDS011;27371;42.686;23.362;2023-12-22T13:52:26;4.40;;;2.42;;
41687;SDS011;27371;42.686;23.362;2023-12-22T13:54:52;4.93;;;2.80;;
41687;SDS011;27371;42.686;23.362;2023-12-22T13:57:22;6.40;;;2.50;;
41687;SDS011;27371;42.686;23.362;2023-12-22T13:59:47;7.68;;;2.97;;
41687;SDS011;27371;42.686;23.362;2023-12-22T14:02:13;5.03;;;2.78;;
41687;SDS011;27371;42.686;23.362;2023-12-22T14:04:38;5.05;;;2.65;;
41687;SDS011;27371;42.686;23.362;2023-12-22T14:07:03;6.60;;;3.20;;
41687;SDS011;27371;42.686;23.362;2023-12-22T14:09:29;3.97;;;2.00;;
41687;SDS011;27371;42.686;23.362;2023-12-22T14:11:57;5.20;;;1.60;;
41687;SDS011;27371;42.686;23.362;2023-12-22T14:14:23;5.32;;;2.67;;
41687;SDS011;27371;42.686;23.362;2023-12-22T14:16:49;2.50;;;1.30;;
41687;SDS011;27371;42.686;23.362;2023-12-22T14:19:14;3.60;;;1.50;;